Rawalpindi, Pakistan
Current Conditions -  °F | °C
As of 4:00 PM on Friday 19 Dec 2014 (Local Time) from OPRN Reporting Station
Haze Haze  
Wind Chill: 64°   Ceiling: Unl
Heat Index: 64°   Visibility: 1.2mi
Dew Point: 43°   Wind: 9mph
Humidity: 45%   Direction: 230°SW
Pressure: NA   Gusts: NA
Location:  33.6°N, 73.04°E
Report Text: OPRN 191100Z 23008KT 2000 HZ SKC 18/06 Q1022.0/30.18
Loading
Personal Weather Stations






























Interactive Weather Map New forecast layout! Learn more

10-Day Weather Forecast

Advertisements
Track Severe Weather on mobile